Time;durP1;ratioP1;P1;durP2;ratioP2;P2;SDS_P1;SDS_P2;PMS_P1;PMS_P2;Temp;Humidity;BMP_temperature;BMP_pressure;BME280_temperature;BME280_humidity;BME280_pressure;Samples;Min_cycle;Max_cycle;Signal;HPM_P1;HPM_P2
2024/02/22 00:01:42;;;;;;;0.20;0.20;;;;;;;9.17;95.37;74761.44;4989487;28;20038;-80
2024/02/22 00:04:12;;;;;;;0.20;0.20;;;;;;;9.01;95.18;74739.56;5040815;28;20520;-82
2024/02/22 00:06:40;;;;;;;0.20;0.20;;;;;;;9.18;95.53;74759.84;5021000;28;20032;-81
2024/02/22 00:09:07;;;;;;;0.20;0.20;;;;;;;8.95;95.78;74732.41;5020838;28;20026;-81
2024/02/22 00:11:33;;;;;;;0.20;0.20;;;;;;;9.02;95.87;74738.59;5002908;28;20497;-81
2024/02/22 00:14:00;;;;;;;0.20;0.20;;;;;;;9.11;96.61;74749.34;5019831;28;20037;-82
2024/02/22 00:16:26;;;;;;;0.30;0.30;;;;;;;9.08;96.42;74745.16;4998799;28;20065;-82
2024/02/22 00:18:53;;;;;;;0.20;0.20;;;;;;;9.11;96.31;74754.88;4987340;28;20472;-81
2024/02/22 00:21:18;;;;;;;0.20;0.20;;;;;;;9.03;96.99;74747.47;4981952;28;20039;-81
2024/02/22 00:23:44;;;;;;;0.20;0.20;;;;;;;8.79;97.88;74711.75;4981902;28;20471;-81
2024/02/22 00:26:14;;;;;;;0.20;0.20;;;;;;;8.96;97.37;74733.59;4997169;28;20044;-82
2024/02/22 00:28:40;;;;;;;0.20;0.20;;;;;;;8.87;97.36;74721.28;4982302;28;20019;-82
2024/02/22 00:31:14;;;;;;;0.20;0.20;;;;;;;8.87;97.32;74726.81;4993812;28;20031;-83
2024/02/22 00:33:44;;;;;;;0.22;0.22;;;;;;;9.02;98.06;74738.00;4998017;28;20054;-81
2024/02/22 00:36:09;;;;;;;0.20;0.20;;;;;;;8.98;98.91;74738.75;4996500;28;20031;-81
2024/02/22 00:38:35;;;;;;;0.20;0.20;;;;;;;9.04;97.85;74745.91;5005709;28;20065;-82
2024/02/22 00:41:04;;;;;;;0.20;0.20;;;;;;;8.94;97.63;74731.81;4999693;28;20687;-82
2024/02/22 00:43:29;;;;;;;0.20;0.20;;;;;;;8.71;97.74;74707.13;4997116;28;20042;-81
2024/02/22 00:45:56;;;;;;;0.20;0.20;;;;;;;9.04;98.14;74740.38;4996808;28;20041;-81
2024/02/22 00:48:21;;;;;;;0.20;0.20;;;;;;;8.91;97.72;74731.59;4980318;28;20066;-81
2024/02/22 00:50:47;;;;;;;0.20;0.20;;;;;;;9.04;97.28;74745.91;4979238;28;20077;-82
2024/02/22 00:53:12;;;;;;;0.20;0.20;;;;;;;8.68;98.11;74698.63;4977363;28;20027;-81
2024/02/22 00:55:39;;;;;;;0.30;0.30;;;;;;;8.74;97.65;74708.53;4978648;28;20023;-81
2024/02/22 00:58:04;;;;;;;0.20;0.20;;;;;;;8.51;98.43;74681.69;4978344;28;20026;-80
2024/02/22 01:00:30;;;;;;;0.20;0.20;;;;;;;8.77;98.22;74712.13;4978119;28;20049;-81
2024/02/22 01:02:56;;;;;;;0.20;0.20;;;;;;;8.69;98.55;74699.81;4978139;28;20081;-80
2024/02/22 01:05:21;;;;;;;0.20;0.20;;;;;;;8.65;99.59;74700.56;4967455;28;20121;-80
2024/02/22 01:07:46;;;;;;;0.20;0.20;;;;;;;8.61;99.04;74693.03;4997600;28;20065;-81
2024/02/22 01:10:12;;;;;;;0.30;0.30;;;;;;;8.73;98.43;74710.09;4998515;28;20093;-80
2024/02/22 01:12:39;;;;;;;0.30;0.30;;;;;;;8.61;98.77;74695.78;4988527;28;20031;-80
2024/02/22 01:15:06;;;;;;;0.20;0.20;;;;;;;8.63;98.88;74696.03;4980302;28;20085;-81
2024/02/22 01:17:33;;;;;;;0.20;0.20;;;;;;;8.54;98.55;74692.94;4980739;28;20120;-81
2024/02/22 01:19:58;;;;;;;0.20;0.20;;;;;;;8.85;98.18;74715.56;4981452;28;20022;-81
2024/02/22 01:22:28;;;;;;;0.20;0.20;;;;;;;8.88;98.05;74719.72;4998991;28;20636;-81
2024/02/22 01:24:54;;;;;;;0.30;0.30;;;;;;;8.83;97.19;74722.03;4981215;28;20114;-80
2024/02/22 01:27:20;;;;;;;0.20;0.20;;;;;;;8.90;96.67;74724.28;4981676;28;20453;-81
2024/02/22 01:29:46;;;;;;;0.20;0.20;;;;;;;8.81;96.57;74716.88;4981634;28;20458;-81
2024/02/22 01:32:12;;;;;;;0.20;0.20;;;;;;;8.77;97.38;74714.28;4981090;28;20089;-81
2024/02/22 01:34:40;;;;;;;0.20;0.20;;;;;;;8.60;96.33;74697.34;4981626;28;20026;-81
2024/02/22 01:37:07;;;;;;;0.20;0.20;;;;;;;8.57;96.63;74688.84;4981263;28;20034;-81
2024/02/22 01:39:33;;;;;;;0.20;0.20;;;;;;;8.72;96.64;74700.63;4998933;28;20041;-81
2024/02/22 01:42:01;;;;;;;0.20;0.20;;;;;;;8.44;95.57;74670.00;4999252;28;20031;-81
2024/02/22 01:44:30;;;;;;;0.20;0.20;;;;;;;8.43;95.35;74668.81;4998864;28;20161;-81
2024/02/22 01:46:56;;;;;;;0.20;0.20;;;;;;;8.53;95.37;74680.75;4999449;28;20652;-80
2024/02/22 01:49:25;;;;;;;0.20;0.20;;;;;;;8.49;94.91;74678.72;4981629;28;20022;-81
2024/02/22 01:51:56;;;;;;;0.20;0.20;;;;;;;8.52;94.93;74685.66;4981568;28;20054;-80
2024/02/22 01:54:22;;;;;;;0.20;0.20;;;;;;;8.58;93.96;74689.47;4981935;28;20058;-81
2024/02/22 01:56:47;;;;;;;0.20;0.20;;;;;;;8.62;94.47;74691.47;4983621;28;20053;-83
2024/02/22 01:59:15;;;;;;;0.20;0.20;;;;;;;8.44;94.31;74675.50;4982865;28;20030;-81
2024/02/22 02:01:41;;;;;;;0.20;0.20;;;;;;;8.56;93.34;74684.91;5000920;28;20034;-82
2024/02/22 02:04:11;;;;;;;0.20;0.20;;;;;;;8.47;93.39;74676.31;5000751;28;20038;-82
2024/02/22 02:06:37;;;;;;;0.20;0.20;;;;;;;8.76;91.90;74713.09;4999012;28;20045;-82
2024/02/22 02:09:06;;;;;;;0.20;0.20;;;;;;;8.45;91.13;74674.53;4984731;28;20022;-81
2024/02/22 02:11:33;;;;;;;0.20;0.20;;;;;;;8.59;92.23;74685.13;5000864;28;20034;-81
2024/02/22 02:13:58;;;;;;;0.30;0.30;;;;;;;8.53;92.04;74684.09;4999921;28;20046;-81
2024/02/22 02:16:24;;;;;;;0.20;0.20;;;;;;;8.39;92.05;74665.22;5008016;28;20046;-81
2024/02/22 02:18:49;;;;;;;0.22;0.22;;;;;;;8.49;91.46;74678.72;4985833;28;20045;-81
2024/02/22 02:21:48;;;;;;;0.20;0.20;;;;;;;8.58;91.33;74686.69;5002212;28;20076;-81
2024/02/22 02:24:38;;;;;;;0.20;0.20;;;;;;;8.56;90.49;74687.06;4986735;28;20035;-81
2024/02/22 02:27:05;;;;;;;0.20;0.20;;;;;;;8.36;90.31;74661.03;4982135;28;20030;-81
2024/02/22 02:29:30;;;;;;;0.20;0.20;;;;;;;8.65;90.59;74700.56;4983153;28;20033;-81
2024/02/22 02:31:55;;;;;;;0.20;0.20;;;;;;;8.62;91.32;74694.22;5019611;28;20033;-81
2024/02/22 02:34:22;;;;;;;0.20;0.20;;;;;;;8.43;90.93;74674.31;4984763;28;20445;-81
2024/02/22 02:36:49;;;;;;;0.20;0.20;;;;;;;8.58;90.81;74692.81;4998437;28;20026;-81
2024/02/22 02:39:14;;;;;;;0.20;0.20;;;;;;;8.62;89.02;74691.47;5001837;28;20037;-81
2024/02/22 02:41:40;;;;;;;0.20;0.20;;;;;;;8.43;89.76;74668.81;5018325;28;20034;-81
2024/02/22 02:44:05;;;;;;;0.20;0.20;;;;;;;8.51;89.65;74681.69;5001841;28;20163;-80
2024/02/22 02:46:31;;;;;;;0.20;0.20;;;;;;;8.49;89.09;74675.97;5000375;28;20025;-81
2024/02/22 02:48:56;;;;;;;0.20;0.20;;;;;;;8.44;89.89;74670.00;5002014;28;20476;-81
2024/02/22 02:51:22;;;;;;;0.20;0.20;;;;;;;8.33;90.02;74658.03;4990734;28;20125;-81
2024/02/22 02:53:48;;;;;;;0.30;0.30;;;;;;;8.43;89.96;74674.31;4999726;28;20030;-81
2024/02/22 02:56:13;;;;;;;0.20;0.20;;;;;;;8.39;89.49;74670.72;4999589;28;20063;-81
2024/02/22 02:58:38;;;;;;;0.20;0.20;;;;;;;8.47;89.54;74676.31;4982496;28;20049;-80
2024/02/22 03:01:06;;;;;;;0.20;0.20;;;;;;;8.37;89.51;74662.84;4983008;28;20031;-81
2024/02/22 03:03:34;;;;;;;0.20;0.20;;;;;;;8.47;90.22;74673.56;4999820;28;20019;-81
2024/02/22 03:06:00;;;;;;;0.20;0.20;;;;;;;8.40;90.45;74666.41;4999653;28;20042;-81
2024/02/22 03:08:27;;;;;;;0.20;0.20;;;;;;;8.37;89.95;74665.59;4982305;28;20034;-81
2024/02/22 03:10:52;;;;;;;0.20;0.20;;;;;;;8.46;90.23;74672.38;5000458;28;20023;-82
2024/02/22 03:13:18;;;;;;;0.20;0.20;;;;;;;8.28;91.27;74654.81;4985814;28;20026;-81
2024/02/22 03:15:43;;;;;;;0.25;0.25;;;;;;;8.40;90.70;74669.16;5020710;28;20046;-81
2024/02/22 03:18:09;;;;;;;0.20;0.20;;;;;;;8.49;89.75;74676.56;5002813;28;20041;-81
2024/02/22 03:20:34;;;;;;;0.20;0.20;;;;;;;8.37;90.64;74662.84;5003158;28;20038;-80
2024/02/22 03:23:00;;;;;;;0.20;0.20;;;;;;;8.47;90.66;74676.94;5002862;28;20034;-81
2024/02/22 03:25:28;;;;;;;0.20;0.20;;;;;;;8.26;90.36;74649.69;4985091;28;20133;-81
2024/02/22 03:27:58;;;;;;;0.20;0.20;;;;;;;8.03;90.44;74622.84;4985808;28;20057;-81
2024/02/22 03:30:24;;;;;;;0.20;0.20;;;;;;;7.79;91.10;74594.25;4985539;28;20023;-81
2024/02/22 03:32:51;;;;;;;0.20;0.20;;;;;;;7.87;91.66;74604.38;4989846;28;20406;-81
2024/02/22 03:35:17;;;;;;;0.20;0.20;;;;;;;7.70;92.73;74584.09;5003480;28;20536;-82
2024/02/22 03:37:45;;;;;;;0.20;0.20;;;;;;;7.46;93.25;74561.00;4985587;28;20026;-81
2024/02/22 03:40:11;;;;;;;0.20;0.20;;;;;;;7.48;91.43;74557.88;5013074;28;20023;-81
2024/02/22 03:42:38;;;;;;;0.20;0.20;;;;;;;7.84;90.89;74606.31;5000848;28;20034;-82
2024/02/22 03:45:07;;;;;;;0.20;0.20;;;;;;;7.77;90.65;74592.44;4997788;28;20048;-81
2024/02/22 03:47:32;;;;;;;0.20;0.20;;;;;;;7.87;90.00;74604.38;4994881;28;20702;-81
2024/02/22 03:49:58;;;;;;;0.20;0.20;;;;;;;7.77;89.48;74597.94;5005463;28;20030;-81
2024/02/22 03:52:23;;;;;;;0.20;0.20;;;;;;;7.81;88.68;74599.38;5005392;28;20120;-81
2024/02/22 03:54:49;;;;;;;0.20;0.20;;;;;;;7.93;89.36;74616.44;5022360;28;20033;-81
2024/02/22 03:57:16;;;;;;;0.20;0.20;;;;;;;7.75;90.38;74592.81;4997995;28;20030;-81
2024/02/22 03:59:43;;;;;;;0.20;0.20;;;;;;;7.79;90.70;74594.84;4996582;28;20055;-80
2024/02/22 04:02:09;;;;;;;0.20;0.20;;;;;;;7.75;91.00;74595.56;5009058;28;20041;-80
2024/02/22 04:04:34;;;;;;;0.30;0.30;;;;;;;7.50;91.08;74557.50;5003921;28;20030;-81
2024/02/22 04:06:59;;;;;;;0.20;0.20;;;;;;;7.70;91.57;74589.00;4999571;28;20026;-80
2024/02/22 04:09:25;;;;;;;0.20;0.20;;;;;;;7.47;92.14;74559.44;4985527;28;20034;-81
2024/02/22 04:11:50;;;;;;;0.20;0.20;;;;;;;7.68;92.09;74586.63;4983669;28;20023;-80
2024/02/22 04:14:16;;;;;;;0.20;0.20;;;;;;;7.50;92.32;74560.84;4984114;28;20042;-81
2024/02/22 04:16:42;;;;;;;0.20;0.20;;;;;;;7.69;92.55;74591.16;4984720;28;20509;-81
2024/02/22 04:19:07;;;;;;;0.20;0.20;;;;;;;7.53;92.85;74563.84;4989512;28;20648;-81
2024/02/22 04:21:38;;;;;;;0.20;0.20;;;;;;;7.61;92.69;74581.63;5003743;28;20032;-81
2024/02/22 04:24:05;;;;;;;0.28;0.28;;;;;;;7.47;93.05;74562.78;5000985;28;20125;-81
2024/02/22 04:26:30;;;;;;;0.20;0.20;;;;;;;7.72;92.87;74586.47;5002109;28;20034;-81
2024/02/22 04:28:55;;;;;;;0.20;0.20;;;;;;;7.69;93.01;74582.31;5005048;28;20053;-82
2024/02/22 04:31:21;;;;;;;0.20;0.20;;;;;;;7.79;92.15;74594.84;4987559;28;20026;-81
2024/02/22 04:33:47;;;;;;;0.20;0.20;;;;;;;7.81;91.19;74602.72;4985566;28;20032;-81
2024/02/22 04:36:14;;;;;;;0.20;0.20;;;;;;;7.66;90.43;74579.31;4983955;28;20532;-81
2024/02/22 04:38:40;;;;;;;0.20;0.20;;;;;;;7.85;90.66;74602.00;4984172;28;20043;-82
2024/02/22 04:41:07;;;;;;;0.20;0.20;;;;;;;7.67;89.90;74586.03;4984708;28;20034;-81
2024/02/22 04:43:33;;;;;;;0.20;0.20;;;;;;;7.84;89.63;74603.56;5001501;28;20030;-81
2024/02/22 04:45:59;;;;;;;0.20;0.20;;;;;;;7.98;89.93;74621.78;4984099;28;20038;-81
2024/02/22 04:48:26;;;;;;;0.20;0.20;;;;;;;7.99;89.13;74626.34;4983177;28;20057;-81
2024/02/22 04:50:56;;;;;;;0.20;0.20;;;;;;;8.00;88.74;74624.19;5006433;28;20040;-81
2024/02/22 04:53:23;;;;;;;0.20;0.20;;;;;;;7.92;87.57;74609.13;5003365;28;20044;-81
2024/02/22 04:55:48;;;;;;;0.20;0.20;;;;;;;7.91;88.18;74607.94;5021003;28;20040;-81
2024/02/22 04:58:14;;;;;;;0.20;0.20;;;;;;;7.77;88.27;74594.59;4984780;28;20031;-81
2024/02/22 05:00:40;;;;;;;0.20;0.20;;;;;;;7.85;88.52;74606.91;5013992;28;20032;-80
2024/02/22 05:03:06;;;;;;;0.30;0.30;;;;;;;8.05;87.92;74627.41;5005320;28;20508;-82
2024/02/22 05:05:31;;;;;;;0.20;0.20;;;;;;;7.76;87.46;74587.91;4989578;28;20038;-81
2024/02/22 05:07:59;;;;;;;0.30;0.30;;;;;;;7.88;87.96;74605.56;5004465;28;20037;-82
2024/02/22 05:10:25;;;;;;;0.20;0.20;;;;;;;7.95;87.24;74618.22;5021683;28;20034;-81
2024/02/22 05:12:51;;;;;;;0.20;0.20;;;;;;;7.93;87.71;74615.84;5002631;28;20397;-81
2024/02/22 05:15:16;;;;;;;0.20;0.20;;;;;;;7.97;87.82;74621.19;4993500;28;20265;-81
2024/02/22 05:17:43;;;;;;;0.20;0.20;;;;;;;7.92;86.68;74611.88;4998704;28;20085;-81
2024/02/22 05:20:09;;;;;;;0.20;0.20;;;;;;;8.10;85.53;74636.13;4985833;28;20034;-80
2024/02/22 05:22:34;;;;;;;0.20;0.20;;;;;;;7.98;85.79;74616.28;4984469;28;20057;-80
2024/02/22 05:25:01;;;;;;;0.20;0.20;;;;;;;7.92;85.22;74614.66;4988045;28;20490;-80
2024/02/22 05:27:27;;;;;;;0.20;0.20;;;;;;;7.87;85.45;74601.63;4978394;28;20094;-81
2024/02/22 05:29:52;;;;;;;0.20;0.20;;;;;;;7.89;84.99;74606.16;4977579;28;20062;-82
2024/02/22 05:32:18;;;;;;;0.28;0.28;;;;;;;7.92;84.58;74609.72;4992071;28;20022;-81
2024/02/22 05:34:43;;;;;;;0.20;0.20;;;;;;;8.03;84.81;74627.75;5017246;28;20124;-81
2024/02/22 05:37:15;;;;;;;0.20;0.20;;;;;;;8.10;84.80;74633.38;5016569;28;20080;-82
2024/02/22 05:39:41;;;;;;;0.20;0.20;;;;;;;8.00;84.98;74621.44;4980812;28;20030;-82
2024/02/22 05:42:07;;;;;;;0.30;0.30;;;;;;;8.07;84.75;74629.78;4998203;28;20034;-82
2024/02/22 05:44:32;;;;;;;0.30;0.30;;;;;;;8.01;84.51;74625.38;4997655;28;20128;-81
2024/02/22 05:46:57;;;;;;;0.20;0.20;;;;;;;8.09;84.57;74623.91;4997458;28;20113;-81
2024/02/22 05:49:23;;;;;;;0.30;0.30;;;;;;;8.06;84.48;74631.94;4997161;28;20041;-81
2024/02/22 05:51:50;;;;;;;0.20;0.20;;;;;;;8.08;84.36;74630.97;4997483;28;20462;-81
2024/02/22 05:54:17;;;;;;;0.20;0.20;;;;;;;7.90;84.67;74601.25;4997684;28;20049;-81
2024/02/22 05:56:43;;;;;;;0.20;0.20;;;;;;;8.04;84.13;74629.56;4996944;28;20482;-81
2024/02/22 05:59:08;;;;;;;0.20;0.20;;;;;;;7.94;83.74;74612.13;4997889;28;20022;-82
2024/02/22 06:01:34;;;;;;;0.20;0.20;;;;;;;8.13;84.15;74639.69;5001139;28;20010;-81
2024/02/22 06:03:59;;;;;;;0.30;0.30;;;;;;;8.39;83.29;74667.97;5000370;28;20495;-82
2024/02/22 06:06:25;;;;;;;0.20;0.20;;;;;;;9.03;79.96;74739.19;5000706;28;20021;-81
2024/02/22 06:08:51;;;;;;;0.20;0.20;;;;;;;9.61;76.31;74812.75;5007060;28;20030;-81
2024/02/22 06:11:18;;;;;;;0.20;0.20;;;;;;;9.98;73.19;74851.41;5019245;28;20131;-82
2024/02/22 06:13:43;;;;;;;0.20;0.20;;;;;;;10.31;71.89;74889.06;5014258;28;20045;-82
2024/02/22 06:16:10;;;;;;;0.20;0.20;;;;;;;10.68;69.13;74932.66;5009688;28;20042;-81
2024/02/22 06:18:37;;;;;;;0.20;0.20;;;;;;;10.92;67.72;74966.88;4986713;28;20027;-82
2024/02/22 06:21:13;;;;;;;0.20;0.20;;;;;;;11.40;64.80;75017.53;4984536;28;20478;-82
2024/02/22 06:23:41;;;;;;;0.20;0.20;;;;;;;11.74;63.72;75059.75;4987118;28;20050;-83
2024/02/22 06:26:08;;;;;;;0.20;0.20;;;;;;;12.63;61.13;75161.66;4991391;28;20246;-82
2024/02/22 06:28:33;;;;;;;0.20;0.20;;;;;;;12.22;59.67;75107.66;4979802;28;20043;-82
2024/02/22 06:31:00;;;;;;;0.20;0.20;;;;;;;12.73;59.00;75176.41;4990131;28;20026;-82
2024/02/22 06:33:26;;;;;;;0.20;0.20;;;;;;;12.39;59.74;75133.53;5017117;28;20022;-82
2024/02/22 06:35:53;;;;;;;0.20;0.20;;;;;;;12.85;57.91;75187.97;5001564;28;20134;-81
2024/02/22 06:38:20;;;;;;;0.20;0.20;;;;;;;12.92;57.71;75192.97;5000532;28;20498;-81
2024/02/22 06:40:48;;;;;;;0.20;0.20;;;;;;;12.90;56.92;75187.81;5004007;28;20082;-82
2024/02/22 06:43:14;;;;;;;0.20;0.20;;;;;;;13.48;55.35;75261.59;5004069;28;20023;-83
2024/02/22 06:45:42;;;;;;;0.20;0.20;;;;;;;13.79;53.13;75294.72;5004828;28;20070;-82
2024/02/22 06:48:08;;;;;;;0.20;0.20;;;;;;;14.06;52.57;75329.88;5010047;28;20041;-83
2024/02/22 06:50:36;;;;;;;0.20;0.20;;;;;;;13.71;53.98;75288.53;5014911;28;20026;-81
2024/02/22 06:53:03;;;;;;;0.20;0.20;;;;;;;14.36;52.79;75365.19;5012089;28;20106;-83
2024/02/22 06:55:33;;;;;;;0.20;0.20;;;;;;;13.48;52.51;75261.00;5009329;28;20034;-81
2024/02/22 06:58:03;;;;;;;0.20;0.20;;;;;;;13.52;53.45;75263.59;5007738;28;20037;-82
2024/02/22 07:00:28;;;;;;;0.20;0.20;;;;;;;13.82;52.67;75296.16;4990835;28;20030;-81
2024/02/22 07:03:15;;;;;;;0.20;0.20;;;;;;;14.07;53.66;75331.06;5007184;28;20030;-82
2024/02/22 07:05:50;;;;;;;0.20;0.20;;;;;;;13.98;53.33;75314.13;5009134;28;20035;-82
2024/02/22 07:08:19;;;;;;;0.20;0.20;;;;;;;13.96;52.96;75317.88;5008763;28;20041;-82
2024/02/22 07:10:45;;;;;;;0.20;0.20;;;;;;;13.85;52.97;75301.94;5007759;28;20035;-82
2024/02/22 07:13:14;;;;;;;0.20;0.20;;;;;;;13.92;52.38;75312.50;4992574;28;20112;-81
2024/02/22 07:15:44;;;;;;;0.20;0.20;;;;;;;14.14;52.37;75339.44;5006864;28;20049;-83
2024/02/22 07:18:10;;;;;;;0.20;0.20;;;;;;;14.49;51.18;75379.56;5000875;28;20037;-82
2024/02/22 07:20:38;;;;;;;0.20;0.20;;;;;;;14.37;50.54;75366.38;5007670;28;20066;-82
2024/02/22 07:23:17;;;;;;;0.20;0.20;;;;;;;14.56;51.58;75387.97;5012024;28;20030;-84
2024/02/22 07:25:47;;;;;;;0.20;0.20;;;;;;;14.74;50.83;75406.16;5010957;28;20046;-82
2024/02/22 07:28:15;;;;;;;0.20;0.20;;;;;;;14.82;50.61;75418.53;5011659;28;20097;-82
2024/02/22 07:30:59;;;;;;;0.20;0.20;;;;;;;14.86;51.08;75423.91;5006838;28;20026;-82
2024/02/22 07:33:29;;;;;;;0.30;0.30;;;;;;;14.33;51.69;75361.00;5005643;28;20054;-82
2024/02/22 07:35:56;;;;;;;0.20;0.20;;;;;;;14.61;51.58;75388.41;4990069;28;20033;-81
2024/02/22 07:38:25;;;;;;;0.20;0.20;;;;;;;14.42;52.52;75371.75;5005985;28;20057;-81
2024/02/22 07:40:54;;;;;;;0.20;0.20;;;;;;;13.80;55.24;75298.72;5004228;28;20038;-81
2024/02/22 07:43:22;;;;;;;0.20;0.20;;;;;;;13.17;57.80;75225.06;5006843;28;20030;-82
2024/02/22 07:45:49;;;;;;;0.20;0.20;;;;;;;13.51;56.94;75264.59;5004308;28;20034;-81
2024/02/22 07:48:17;;;;;;;0.20;0.20;;;;;;;12.91;58.99;75194.56;5004227;28;20034;-83
2024/02/22 07:50:44;;;;;;;0.20;0.20;;;;;;;13.22;58.29;75231.09;5006534;28;20030;-82
2024/02/22 07:53:10;;;;;;;0.20;0.20;;;;;;;13.27;58.07;75233.69;4989515;28;20050;-82
2024/02/22 07:55:38;;;;;;;0.20;0.20;;;;;;;14.46;55.41;75375.97;4997680;28;20034;-81
2024/02/22 07:58:05;;;;;;;0.20;0.20;;;;;;;14.03;55.60;75329.03;5005136;28;20440;-81
2024/02/22 08:00:38;;;;;;;0.20;0.20;;;;;;;15.17;53.12;75459.84;4997046;28;20035;-83
2024/02/22 08:03:09;;;;;;;0.20;0.20;;;;;;;15.61;52.61;75511.41;4997176;28;20031;-82
2024/02/22 08:05:44;;;;;;;0.20;0.20;;;;;;;16.01;50.82;75549.81;5013187;28;20062;-83
2024/02/22 08:08:12;;;;;;;0.20;0.20;;;;;;;16.40;49.92;75602.16;4990822;28;20029;-83
2024/02/22 08:10:43;;;;;;;0.20;0.20;;;;;;;17.13;48.29;75690.75;5011602;28;20034;-82
2024/02/22 08:13:12;;;;;;;0.20;0.20;;;;;;;17.43;48.02;75726.16;5015110;28;20022;-82
2024/02/22 08:15:42;;;;;;;0.20;0.20;;;;;;;17.06;49.00;75676.78;5019868;28;20076;-82
2024/02/22 08:18:10;;;;;;;0.20;0.20;;;;;;;17.16;48.38;75686.00;5003882;28;20089;-82
2024/02/22 08:20:37;;;;;;;0.20;0.20;;;;;;;16.47;50.01;75609.97;5003782;28;20042;-81
2024/02/22 08:23:15;;;;;;;0.20;0.20;;;;;;;17.55;47.49;75734.38;5020596;28;20045;-82
2024/02/22 08:25:48;;;;;;;0.20;0.20;;;;;;;16.50;50.31;75616.34;5032176;28;20029;-82
2024/02/22 08:28:19;;;;;;;0.20;0.20;;;;;;;17.67;49.94;75748.78;5030446;28;20068;-82
2024/02/22 08:31:16;;;;;;;0.20;0.20;;;;;;;17.75;51.46;75755.63;4997397;28;20030;-82
2024/02/22 08:33:51;;;;;;;0.20;0.20;;;;;;;17.37;52.26;75712.78;5014895;28;20042;-82
2024/02/22 08:36:23;;;;;;;0.20;0.20;;;;;;;17.23;54.54;75694.38;5004645;28;20508;-82
2024/02/22 08:38:52;;;;;;;0.20;0.20;;;;;;;17.76;54.89;75765.19;5027065;28;20110;-81
2024/02/22 08:41:37;;;;;;;0.20;0.20;;;;;;;17.59;57.60;75741.97;5022109;28;20120;-82
2024/02/22 08:44:15;;;;;;;0.20;0.20;;;;;;;18.24;54.59;75815.44;5007940;28;20125;-82
2024/02/22 08:46:47;;;;;;;0.20;0.20;;;;;;;18.36;54.70;75829.25;5012826;28;20058;-81
2024/02/22 08:49:20;;;;;;;0.20;0.20;;;;;;;18.53;54.88;75852.44;5019886;28;20021;-81
2024/02/22 08:52:01;;;;;;;0.20;0.20;;;;;;;17.55;58.32;75739.97;5010322;28;20106;-82
2024/02/22 08:55:04;;;;;;;0.20;0.20;;;;;;;18.71;54.28;75874.09;5006002;28;20056;-81
2024/02/22 08:57:39;;;;;;;;;;;;;;;18.42;54.25;75839.25;5025583;28;20022;-81
2024/02/22 09:00:22;;;;;;;0.20;0.20;;;;;;;17.46;56.57;75729.75;5004383;28;19910;-82
2024/02/22 09:03:09;;;;;;;0.20;0.20;;;;;;;17.80;57.38;75767.22;5018928;28;20061;-82
2024/02/22 09:05:45;;;;;;;0.20;0.20;;;;;;;17.64;57.22;75744.59;5031403;28;20073;-82
2024/02/22 09:08:21;;;;;;;0.20;0.20;;;;;;;16.95;61.34;75663.59;4996521;28;20041;-81
2024/02/22 09:10:51;;;;;;;0.20;0.20;;;;;;;18.06;55.16;75795.03;5020252;28;20148;-82
2024/02/22 09:13:53;;;;;;;0.20;0.20;;;;;;;17.64;55.34;75747.97;5002159;28;20038;-82
2024/02/22 09:16:44;;;;;;;0.20;0.20;;;;;;;18.65;51.17;75869.69;5016281;28;20054;-81
2024/02/22 09:20:01;;;;;;;0.20;0.20;;;;;;;18.64;48.83;75862.88;5027289;28;20026;-82
2024/02/22 09:22:37;;;;;;;0.20;0.20;;;;;;;19.12;49.38;75919.34;4994501;28;20022;-81
2024/02/22 09:25:08;;;;;;;0.20;0.20;;;;;;;18.37;52.34;75836.03;5010242;28;20049;-82
2024/02/22 09:27:33;;;;;;;0.20;0.20;;;;;;;18.90;51.46;75896.31;5003246;28;20041;-82
2024/02/22 09:30:04;;;;;;;0.20;0.20;;;;;;;17.64;53.12;75744.59;5000360;28;20045;-83
2024/02/22 09:32:35;;;;;;;0.20;0.20;;;;;;;17.62;53.86;75745.56;4998444;28;20038;-82
2024/02/22 09:35:03;;;;;;;0.20;0.20;;;;;;;17.82;52.31;75768.41;4991745;28;20068;-81
2024/02/22 09:37:30;;;;;;;0.20;0.20;;;;;;;18.17;51.45;75813.25;4995049;28;20033;-82
2024/02/22 09:39:58;;;;;;;0.20;0.20;;;;;;;18.47;49.79;75845.25;4998441;28;20018;-81
2024/02/22 09:42:27;;;;;;;0.20;0.20;;;;;;;18.20;49.95;75808.44;4996721;28;20042;-81
2024/02/22 09:44:57;;;;;;;0.10;0.10;;;;;;;18.54;49.62;75853.69;5023312;28;20041;-81
2024/02/22 09:47:30;;;;;;;0.20;0.20;;;;;;;18.72;49.43;75872.50;4993888;28;20035;-81
2024/02/22 09:49:57;;;;;;;0.20;0.20;;;;;;;19.00;47.00;75910.53;5021176;28;20521;-83
2024/02/22 09:52:28;;;;;;;0.20;0.20;;;;;;;18.52;49.62;75851.25;5001830;28;20023;-82
2024/02/22 09:54:56;;;;;;;0.20;0.20;;;;;;;18.21;48.12;75815.22;4997285;28;20521;-83
2024/02/22 09:57:26;;;;;;;0.20;0.20;;;;;;;17.84;50.35;75773.59;5026715;28;20052;-83
2024/02/22 10:00:06;;;;;;;0.20;0.20;;;;;;;19.07;47.04;75913.97;5015730;28;20027;-83
2024/02/22 10:02:48;;;;;;;0.20;0.20;;;;;;;18.63;47.75;75861.66;5013357;28;20034;-82
2024/02/22 10:05:14;;;;;;;0.20;0.20;;;;;;;18.50;45.92;75846.06;4998561;28;20042;-82
2024/02/22 10:07:44;;;;;;;0.20;0.20;;;;;;;18.65;44.81;75863.47;5017292;28;20029;-82
2024/02/22 10:10:12;;;;;;;0.20;0.20;;;;;;;19.40;43.54;75951.81;5013132;28;20056;-82
2024/02/22 10:12:47;;;;;;;0.20;0.20;;;;;;;19.68;44.05;75982.66;5024257;28;20041;-83
2024/02/22 10:15:27;;;;;;;0.20;0.20;;;;;;;20.00;42.58;76022.72;5014688;28;20072;-82
2024/02/22 10:17:54;;;;;;;0.20;0.20;;;;;;;19.12;44.69;75919.34;5011533;28;20042;-82
2024/02/22 10:20:31;;;;;;;0.20;0.20;;;;;;;17.85;47.19;75774.81;5013899;28;20612;-82
2024/02/22 10:23:13;;;;;;;0.20;0.20;;;;;;;17.91;46.83;75773.63;5017366;28;20033;-81
2024/02/22 10:25:44;;;;;;;0.20;0.20;;;;;;;18.09;48.83;75797.44;5018031;28;20580;-81
2024/02/22 10:28:17;;;;;;;0.20;0.20;;;;;;;17.32;49.37;75709.56;5034091;28;20024;-82
2024/02/22 10:30:47;;;;;;;0.10;0.10;;;;;;;17.96;48.39;75782.44;5014642;28;20034;-82
2024/02/22 10:33:13;;;;;;;0.20;0.20;;;;;;;17.31;49.32;75711.16;4999422;28;20037;-82
2024/02/22 10:35:40;;;;;;;0.20;0.20;;;;;;;17.47;49.20;75730.34;4997778;28;20064;-82
2024/02/22 10:38:11;;;;;;;0.20;0.20;;;;;;;17.38;51.02;75720.16;5032934;28;20086;-81
2024/02/22 10:40:49;;;;;;;0.15;0.15;;;;;;;17.04;50.47;75674.38;5014340;28;20026;-82
2024/02/22 10:43:18;;;;;;;0.20;0.20;;;;;;;17.33;50.81;75713.56;5028485;28;20042;-80
2024/02/22 10:45:44;;;;;;;0.20;0.20;;;;;;;17.20;52.01;75692.97;5012134;28;20022;-81
2024/02/22 10:48:18;;;;;;;0.20;0.20;;;;;;;17.38;51.26;75716.78;5012649;28;20034;-82
2024/02/22 10:50:46;;;;;;;0.20;0.20;;;;;;;16.73;52.54;75643.97;5013157;28;20022;-82
2024/02/22 10:53:20;;;;;;;0.10;0.10;;;;;;;17.39;51.44;75717.97;5013635;28;20041;-82
2024/02/22 10:55:50;;;;;;;0.20;0.20;;;;;;;17.54;51.10;75735.97;5013914;28;20072;-82
2024/02/22 10:58:27;;;;;;;0.20;0.20;;;;;;;17.63;52.31;75746.78;5013889;28;20137;-81
2024/02/22 11:00:55;;;;;;;0.20;0.20;;;;;;;17.24;53.22;75703.97;5013046;28;20053;-82
2024/02/22 11:03:25;;;;;;;0.20;0.20;;;;;;;17.21;54.85;75696.97;5012454;28;20029;-81
2024/02/22 11:05:53;;;;;;;0.20;0.20;;;;;;;17.38;54.29;75719.56;5030924;28;20025;-82
2024/02/22 11:08:21;;;;;;;0.20;0.20;;;;;;;17.33;53.52;75707.97;5029807;28;20081;-81
2024/02/22 11:11:07;;;;;;;0.10;0.10;;;;;;;17.01;52.13;75670.78;5029309;28;20587;-82
2024/02/22 11:13:57;;;;;;;0.20;0.20;;;;;;;18.33;49.73;75829.66;5030083;28;20038;-82
2024/02/22 11:16:42;;;;;;;0.20;0.20;;;;;;;18.09;49.71;75803.63;5010150;28;20092;-82
2024/02/22 11:19:15;;;;;;;0.20;0.20;;;;;;;17.65;50.79;75746.38;5011218;28;20060;-82
2024/02/22 11:21:51;;;;;;;0.20;0.20;;;;;;;18.04;52.68;75792.03;5012601;28;20033;-82
2024/02/22 11:24:22;;;;;;;0.20;0.20;;;;;;;17.23;48.32;75702.75;5009273;28;20097;-81
2024/02/22 11:26:50;;;;;;;0.20;0.20;;;;;;;17.72;48.76;75757.59;5011086;28;20069;-82
2024/02/22 11:29:32;;;;;;;0.20;0.20;;;;;;;18.06;48.95;75800.63;5010349;28;20022;-81
2024/02/22 11:32:00;;;;;;;0.20;0.20;;;;;;;17.79;47.97;75768.81;4994880;28;20046;-81
2024/02/22 11:34:28;;;;;;;0.20;0.20;;;;;;;18.04;46.53;75792.03;5002541;28;20038;-82
2024/02/22 11:37:18;;;;;;;0.20;0.20;;;;;;;18.62;45.50;75860.47;5012521;28;20023;-82
2024/02/22 11:39:48;;;;;;;0.20;0.20;;;;;;;18.71;45.05;75871.31;5013105;28;20027;-82
2024/02/22 11:42:22;;;;;;;0.20;0.20;;;;;;;19.09;46.11;75916.34;5013019;28;20052;-82
2024/02/22 11:44:53;;;;;;;0.20;0.20;;;;;;;18.91;45.82;75896.91;5011366;28;20030;-81
2024/02/22 11:47:19;;;;;;;0.20;0.20;;;;;;;17.60;48.66;75745.97;5006983;28;20041;-82
2024/02/22 11:49:51;;;;;;;0.20;0.20;;;;;;;17.55;48.51;75737.78;4993286;28;20439;-82